Time;durP1;ratioP1;P1;durP2;ratioP2;P2;SDS_P1;SDS_P2;PMS_P1;PMS_P2;Temp;Humidity;BMP_temperature;BMP_pressure;BME280_temperature;BME280_humidity;BME280_pressure;Samples;Min_cycle;Max_cycle;Signal;HPM_P1;HPM_P2
2023/09/01 00:00:44;;;;;;;9.27;6.35;;;;;;;23.62;95.52;99843.66;5118366;28;20374;-66
2023/09/01 00:03:10;;;;;;;7.47;5.90;;;;;;;23.62;95.22;99851.75;5119071;28;20096;-66
2023/09/01 00:05:37;;;;;;;7.15;5.93;;;;;;;23.65;96.13;99855.88;5118498;28;20032;-65
2023/09/01 00:08:03;;;;;;;7.22;5.63;;;;;;;23.62;93.72;99857.16;5118434;28;20099;-66
2023/09/01 00:10:29;;;;;;;9.25;5.68;;;;;;;23.57;94.83;99862.50;5118278;28;20217;-66
2023/09/01 00:12:56;;;;;;;7.65;5.95;;;;;;;23.55;94.20;99862.75;5118085;28;20039;-67
2023/09/01 00:15:21;;;;;;;7.20;5.75;;;;;;;23.49;94.89;99855.56;5119211;28;20050;-66
2023/09/01 00:17:47;;;;;;;6.93;5.88;;;;;;;23.58;95.99;99864.13;5118675;28;20036;-65
2023/09/01 00:20:12;;;;;;;8.13;5.68;;;;;;;23.58;96.15;99856.03;5118885;28;20055;-65
2023/09/01 00:22:38;;;;;;;7.78;6.55;;;;;;;23.63;95.73;99858.00;5118372;28;20377;-66
2023/09/01 00:25:04;;;;;;;9.75;6.70;;;;;;;23.63;95.45;99858.00;5118906;28;20158;-66
2023/09/01 00:27:30;;;;;;;7.88;6.55;;;;;;;23.66;96.43;99857.50;5118279;28;20344;-66
2023/09/01 00:29:56;;;;;;;8.40;6.13;;;;;;;23.69;96.39;99852.44;5118303;28;20096;-66
2023/09/01 00:32:21;;;;;;;8.18;6.10;;;;;;;23.66;96.47;99865.63;5118727;28;20102;-66
2023/09/01 00:34:55;;;;;;;9.55;6.40;;;;;;;23.67;95.63;99859.97;5117912;28;20278;-66
2023/09/01 00:37:21;;;;;;;8.23;6.35;;;;;;;23.67;95.74;99857.25;5117935;28;20032;-65
2023/09/01 00:39:46;;;;;;;9.93;6.68;;;;;;;23.70;94.92;99866.75;5118462;28;20104;-66
2023/09/01 00:42:12;;;;;;;8.73;6.75;;;;;;;23.66;94.28;99862.91;5118136;28;20035;-66
2023/09/01 00:44:37;;;;;;;9.00;7.22;;;;;;;23.48;94.77;99858.53;5118235;28;20028;-66
2023/09/01 00:47:03;;;;;;;9.05;6.68;;;;;;;23.40;95.23;99861.63;5118696;28;20244;-66
2023/09/01 00:49:30;;;;;;;11.63;7.55;;;;;;;23.44;95.92;99863.59;5118289;28;20285;-65
2023/09/01 00:51:56;;;;;;;9.73;6.72;;;;;;;23.33;96.50;99864.47;5117877;28;20036;-66
2023/09/01 00:54:21;;;;;;;9.07;7.40;;;;;;;23.34;96.77;99862.59;5118203;28;20034;-66
2023/09/01 00:56:48;;;;;;;7.88;6.70;;;;;;;23.42;95.06;99865.72;5119228;28;20116;-66
2023/09/01 00:59:14;;;;;;;10.85;7.60;;;;;;;23.46;95.64;99866.06;5118810;28;20051;-66
2023/09/01 01:01:42;;;;;;;8.68;6.43;;;;;;;23.49;95.76;99876.38;5117878;28;20043;-66
2023/09/01 01:04:08;;;;;;;7.78;6.97;;;;;;;23.33;96.17;99874.47;5118096;28;20114;-66
2023/09/01 01:07:02;;;;;;;9.23;7.10;;;;;;;23.42;96.18;99881.94;5117968;28;20285;-66
2023/09/01 01:09:28;;;;;;;8.98;6.45;;;;;;;23.35;95.50;99873.16;5118309;28;20028;-66
2023/09/01 01:12:05;;;;;;;9.60;7.00;;;;;;;23.23;96.79;99875.91;5119943;28;20107;-66
2023/09/01 01:14:41;;;;;;;13.15;8.40;;;;;;;23.22;97.07;99885.06;5121762;28;20024;-66
2023/09/01 01:17:09;;;;;;;9.27;7.57;;;;;;;23.16;97.94;99885.22;5121635;28;20066;-66
2023/09/01 01:19:50;;;;;;;11.88;7.95;;;;;;;23.19;96.97;99890.97;5121794;28;20035;-65
2023/09/01 01:22:40;;;;;;;9.45;7.75;;;;;;;23.06;97.89;99890.41;5121285;28;20027;-66
2023/09/01 01:25:10;;;;;;;9.90;7.53;;;;;;;23.16;97.83;99893.31;5121929;28;20413;-66
2023/09/01 01:27:37;;;;;;;9.15;7.45;;;;;;;23.19;97.56;99884.75;5121609;28;20046;-65
2023/09/01 01:30:05;;;;;;;10.02;8.15;;;;;;;23.25;96.06;99884.59;5122052;28;20059;-66
2023/09/01 01:32:34;;;;;;;8.50;7.70;;;;;;;23.21;97.26;99888.84;5122019;28;20034;-65
2023/09/01 01:35:20;;;;;;;9.77;7.57;;;;;;;23.23;97.13;99877.78;5121581;28;20333;-66
2023/09/01 01:38:00;;;;;;;9.80;7.65;;;;;;;23.30;96.46;99889.28;5121479;28;20050;-66
2023/09/01 01:40:29;;;;;;;10.65;7.88;;;;;;;23.34;96.21;99876.91;5121999;28;20048;-66
2023/09/01 01:42:58;;;;;;;9.50;7.80;;;;;;;23.36;96.69;99873.97;5121085;28;20037;-65
2023/09/01 01:45:24;;;;;;;8.63;7.13;;;;;;;23.35;95.76;99870.44;5121255;28;20106;-66
2023/09/01 01:47:51;;;;;;;12.25;8.98;;;;;;;23.28;94.98;99872.47;5121377;28;20229;-65
2023/09/01 01:50:17;;;;;;;10.25;7.72;;;;;;;23.37;95.53;99865.63;5121530;28;20351;-66
2023/09/01 01:52:43;;;;;;;7.97;6.75;;;;;;;23.42;95.27;99873.81;5122069;28;20104;-65
2023/09/01 01:55:09;;;;;;;8.73;7.18;;;;;;;23.40;95.17;99867.84;5121176;28;20347;-65
2023/09/01 01:57:36;;;;;;;8.63;7.15;;;;;;;23.29;94.21;99867.91;5121025;28;20046;-66
2023/09/01 02:00:03;;;;;;;8.65;6.70;;;;;;;23.32;94.14;99868.22;5121433;28;20331;-66
2023/09/01 02:02:29;;;;;;;10.80;7.80;;;;;;;23.35;93.94;99865.03;5121316;28;20317;-65
2023/09/01 02:04:55;;;;;;;9.57;7.15;;;;;;;23.31;93.19;99858.50;5120710;28;20093;-65
2023/09/01 02:07:20;;;;;;;9.65;6.85;;;;;;;23.31;93.08;99863.06;5120785;28;20107;-66
2023/09/01 02:09:46;;;;;;;7.47;6.65;;;;;;;23.29;92.78;99865.19;5120928;28;20084;-65
2023/09/01 02:12:11;;;;;;;8.93;6.93;;;;;;;23.26;90.74;99869.19;5120579;28;20035;-66
2023/09/01 02:14:37;;;;;;;8.27;6.45;;;;;;;23.20;90.12;99868.28;5120702;28;20042;-65
2023/09/01 02:17:06;;;;;;;7.53;6.50;;;;;;;23.15;90.41;99870.06;5120778;28;20341;-66
2023/09/01 02:19:32;;;;;;;8.25;6.75;;;;;;;23.06;90.06;99876.91;5121391;28;20230;-65
2023/09/01 02:21:57;;;;;;;11.88;7.63;;;;;;;22.95;90.64;99875.06;5121037;28;20098;-66
2023/09/01 02:24:23;;;;;;;9.27;7.57;;;;;;;22.89;91.10;99876.84;5120367;28;20072;-66
2023/09/01 02:26:48;;;;;;;8.77;7.38;;;;;;;22.87;91.92;99868.16;5121091;28;20048;-65
2023/09/01 02:29:14;;;;;;;8.10;7.25;;;;;;;22.86;91.07;99875.41;5120556;28;20031;-66
2023/09/01 02:31:40;;;;;;;7.95;6.95;;;;;;;22.88;91.07;99870.59;5120586;28;20340;-65
2023/09/01 02:34:05;;;;;;;13.98;7.88;;;;;;;22.89;90.08;99869.56;5120850;28;20039;-65
2023/09/01 02:36:34;;;;;;;10.10;7.45;;;;;;;22.90;90.19;99868.50;5120356;28;20360;-65
2023/09/01 02:39:00;;;;;;;12.50;8.40;;;;;;;22.90;90.53;99862.28;5120222;28;20054;-66
2023/09/01 02:41:26;;;;;;;9.20;7.55;;;;;;;22.84;90.38;99868.63;5120479;28;20325;-66
2023/09/01 02:43:52;;;;;;;10.30;7.53;;;;;;;22.76;90.24;99864.38;5119798;28;20055;-65
2023/09/01 02:46:18;;;;;;;12.43;8.20;;;;;;;22.84;90.52;99860.53;5120499;28;20138;-66
2023/09/01 02:48:44;;;;;;;10.40;7.70;;;;;;;22.85;90.29;99860.28;5119983;28;20047;-66
2023/09/01 02:51:10;;;;;;;8.65;7.32;;;;;;;22.87;89.11;99865.44;5120675;28;20039;-66
2023/09/01 02:53:36;;;;;;;8.65;6.72;;;;;;;22.79;88.36;99868.47;5120044;28;20038;-65
2023/09/01 02:56:03;;;;;;;12.32;7.13;;;;;;;22.73;88.54;99872.13;5120475;28;20040;-66
2023/09/01 02:58:29;;;;;;;9.75;7.72;;;;;;;22.69;88.03;99860.19;5120381;28;20103;-66
2023/09/01 03:00:55;;;;;;;7.70;6.30;;;;;;;22.61;86.64;99864.88;5120041;28;20237;-66
2023/09/01 03:03:21;;;;;;;8.68;6.13;;;;;;;22.55;86.63;99865.84;5119772;28;20382;-65
2023/09/01 03:05:48;;;;;;;9.38;6.18;;;;;;;22.63;86.84;99864.66;5119381;28;20056;-66
2023/09/01 03:08:14;;;;;;;6.88;5.97;;;;;;;22.62;86.04;99863.00;5119765;28;20046;-66
2023/09/01 03:10:41;;;;;;;7.63;5.85;;;;;;;22.60;85.92;99862.44;5119977;28;20051;-65
2023/09/01 03:13:06;;;;;;;9.00;6.50;;;;;;;22.59;84.82;99860.78;5118879;28;20047;-66
2023/09/01 03:15:32;;;;;;;9.93;6.30;;;;;;;22.54;84.27;99858.78;5119859;28;20367;-66
2023/09/01 03:17:57;;;;;;;7.63;6.78;;;;;;;22.50;84.12;99871.13;5119839;28;20348;-66
2023/09/01 03:20:23;;;;;;;8.75;5.75;;;;;;;22.49;83.64;99864.09;5119775;28;20051;-66
2023/09/01 03:22:49;;;;;;;9.52;5.90;;;;;;;22.49;83.63;99860.56;5119777;28;20044;-66
2023/09/01 03:25:16;;;;;;;6.03;4.65;;;;;;;22.46;82.35;99867.25;5120063;28;20099;-66
2023/09/01 03:27:41;;;;;;;5.65;4.95;;;;;;;22.35;81.77;99861.88;5119545;28;20054;-66
2023/09/01 03:30:07;;;;;;;6.32;5.47;;;;;;;22.34;82.38;99876.41;5119448;28;20036;-65
2023/09/01 03:32:33;;;;;;;7.22;5.07;;;;;;;22.32;81.54;99867.75;5119377;28;20241;-65
2023/09/01 03:34:59;;;;;;;4.88;4.07;;;;;;;22.27;81.05;99868.44;5118481;28;20362;-66
2023/09/01 03:37:25;;;;;;;5.88;4.30;;;;;;;22.20;80.64;99867.75;5119697;28;20036;-66
2023/09/01 03:39:51;;;;;;;6.97;4.50;;;;;;;22.19;80.50;99866.94;5119399;28;20276;-66
2023/09/01 03:42:17;;;;;;;7.50;4.70;;;;;;;22.11;80.33;99877.25;5119117;28;20183;-66
2023/09/01 03:44:43;;;;;;;8.45;4.82;;;;;;;22.03;80.98;99864.09;5119199;28;20039;-66
2023/09/01 03:47:09;;;;;;;7.85;4.20;;;;;;;21.97;80.02;99866.66;5118919;28;20051;-65
2023/09/01 03:49:35;;;;;;;6.10;3.72;;;;;;;21.92;79.64;99871.09;5118749;28;20046;-65
2023/09/01 03:52:01;;;;;;;5.47;4.00;;;;;;;21.86;79.21;99872.03;5119539;28;20337;-66
2023/09/01 03:54:27;;;;;;;5.70;3.45;;;;;;;21.79;78.14;99868.59;5119327;28;20031;-66
2023/09/01 03:56:52;;;;;;;6.78;3.53;;;;;;;21.70;79.01;99873.50;5119724;28;20057;-66
2023/09/01 03:59:19;;;;;;;5.47;3.47;;;;;;;21.71;79.72;99877.84;5118992;28;20084;-65
2023/09/01 04:01:45;;;;;;;5.38;3.78;;;;;;;21.66;78.71;99883.91;5119134;28;20035;-65
2023/09/01 04:04:11;;;;;;;8.02;4.28;;;;;;;21.63;79.00;99884.38;5119313;28;20035;-65
2023/09/01 04:06:38;;;;;;;5.57;3.50;;;;;;;21.69;78.66;99879.94;5118469;28;20048;-66
2023/09/01 04:09:04;;;;;;;5.72;4.07;;;;;;;21.75;78.53;99881.72;5118785;28;20059;-66
2023/09/01 04:11:30;;;;;;;5.13;3.70;;;;;;;21.46;78.75;99890.66;5118466;28;20047;-66
2023/09/01 04:13:55;;;;;;;5.22;4.00;;;;;;;21.52;79.05;99893.25;5119077;28;20263;-66
2023/09/01 04:16:22;;;;;;;7.20;4.25;;;;;;;21.47;79.30;99895.00;5119413;28;20103;-66
2023/09/01 04:18:47;;;;;;;5.85;4.00;;;;;;;21.42;79.90;99892.97;5118716;28;20050;-66
2023/09/01 04:21:13;;;;;;;5.53;3.78;;;;;;;21.37;79.88;99892.03;5118927;28;20048;-66
2023/09/01 04:23:39;;;;;;;5.15;3.70;;;;;;;21.33;80.40;99897.88;5119217;28;20356;-66
2023/09/01 04:26:05;;;;;;;6.25;3.78;;;;;;;21.23;80.63;99905.69;5118810;28;20031;-65
2023/09/01 04:28:31;;;;;;;5.78;3.63;;;;;;;21.10;80.73;99905.81;5118582;28;20035;-65
2023/09/01 04:30:59;;;;;;;4.80;3.80;;;;;;;20.85;81.51;99899.72;5118900;28;20036;-65
2023/09/01 04:33:31;;;;;;;6.63;3.90;;;;;;;21.00;81.55;99903.66;5118525;28;20039;-66
2023/09/01 04:36:00;;;;;;;7.60;3.55;;;;;;;20.96;80.65;99907.03;5118935;28;20040;-65
2023/09/01 04:38:26;;;;;;;4.68;3.78;;;;;;;20.82;80.77;99906.38;5118588;28;20023;-66
2023/09/01 04:40:58;;;;;;;5.55;4.05;;;;;;;21.16;80.53;99909.47;5118149;28;20113;-66
2023/09/01 04:43:26;;;;;;;5.68;3.95;;;;;;;21.21;80.51;99913.13;5118136;28;20040;-66
2023/09/01 04:45:56;;;;;;;7.38;4.00;;;;;;;21.34;80.59;99912.16;5118545;28;20082;-66
2023/09/01 04:48:22;;;;;;;5.53;3.55;;;;;;;21.34;80.73;99901.38;5122206;28;20056;-65
2023/09/01 04:50:48;;;;;;;5.15;3.78;;;;;;;21.48;80.66;99912.81;5122784;28;20062;-65
2023/09/01 04:53:14;;;;;;;8.30;3.55;;;;;;;21.38;80.43;99899.88;5122435;28;20027;-66
2023/09/01 04:55:39;;;;;;;6.55;3.42;;;;;;;21.54;80.30;99909.19;5122806;28;20214;-65
2023/09/01 04:58:05;;;;;;;5.65;3.20;;;;;;;21.68;79.67;99908.75;5122442;28;20044;-66
2023/09/01 05:00:30;;;;;;;5.53;3.45;;;;;;;21.75;79.37;99910.53;5122573;28;20050;-67
2023/09/01 05:02:56;;;;;;;5.45;3.38;;;;;;;21.77;79.43;99914.66;5122509;28;20050;-65
2023/09/01 05:05:21;;;;;;;6.40;3.78;;;;;;;21.77;78.64;99905.75;5122480;28;20043;-66
2023/09/01 05:07:47;;;;;;;7.40;3.60;;;;;;;21.89;79.04;99907.44;5122151;28;20106;-66
2023/09/01 05:10:13;;;;;;;6.75;3.22;;;;;;;21.92;77.87;99903.44;5122114;28;20051;-66
2023/09/01 05:12:38;;;;;;;4.68;3.20;;;;;;;22.05;76.62;99911.34;5121938;28;20035;-66
2023/09/01 05:15:04;;;;;;;4.68;3.10;;;;;;;22.03;75.21;99905.38;5121769;28;20058;-65
2023/09/01 05:17:30;;;;;;;3.20;2.88;;;;;;;22.11;75.64;99905.03;5121571;28;20058;-66
2023/09/01 05:19:57;;;;;;;4.65;3.40;;;;;;;22.41;75.09;99915.72;5121806;28;20039;-66
2023/09/01 05:22:23;;;;;;;4.80;3.65;;;;;;;22.60;74.09;99916.41;5122120;28;20318;-66
2023/09/01 05:24:49;;;;;;;5.60;2.95;;;;;;;22.71;73.21;99912.03;5121891;28;20035;-66
2023/09/01 05:27:15;;;;;;;2.97;2.65;;;;;;;22.79;73.06;99909.81;5122110;28;20217;-66
2023/09/01 05:29:41;;;;;;;4.00;3.03;;;;;;;23.03;72.14;99913.31;5122011;28;20030;-66
2023/09/01 05:32:06;;;;;;;5.88;3.80;;;;;;;23.22;70.72;99919.38;5121274;28;20047;-66
2023/09/01 05:34:32;;;;;;;5.32;3.28;;;;;;;23.38;71.35;99921.31;5121967;28;20042;-66
2023/09/01 05:36:57;;;;;;;4.60;3.03;;;;;;;23.55;70.53;99924.91;5122222;28;20046;-66
2023/09/01 05:39:23;;;;;;;4.45;2.85;;;;;;;23.72;70.14;99924.13;5121813;28;20027;-65
2023/09/01 05:41:49;;;;;;;4.03;3.03;;;;;;;23.98;69.90;99920.81;5120924;28;20047;-66
2023/09/01 05:44:14;;;;;;;6.85;3.50;;;;;;;24.14;69.82;99917.28;5120811;28;20076;-65
2023/09/01 05:46:40;;;;;;;3.70;3.20;;;;;;;24.27;68.37;99926.16;5121432;28;20039;-66
2023/09/01 05:49:05;;;;;;;4.38;3.55;;;;;;;24.35;68.80;99921.16;5121131;28;20244;-66
2023/09/01 05:51:31;;;;;;;5.30;2.90;;;;;;;24.51;68.10;99927.59;5121972;28;20229;-66
2023/09/01 05:53:56;;;;;;;3.75;2.88;;;;;;;24.47;64.73;99930.00;5121167;28;20043;-66
2023/09/01 05:56:22;;;;;;;4.28;2.63;;;;;;;24.63;64.48;99931.03;5121568;28;20314;-66
2023/09/01 05:58:47;;;;;;;5.10;2.80;;;;;;;24.70;63.17;99928.97;5120452;28;20206;-66
2023/09/01 06:01:13;;;;;;;5.95;3.05;;;;;;;24.82;64.68;99932.38;5121459;28;20039;-66
2023/09/01 06:03:39;;;;;;;5.70;2.83;;;;;;;24.80;63.47;99925.56;5121660;28;20034;-66
2023/09/01 06:06:07;;;;;;;5.78;2.75;;;;;;;24.96;61.98;99924.69;5120817;28;20044;-66
2023/09/01 06:08:32;;;;;;;4.68;3.13;;;;;;;25.12;60.22;99929.28;5121005;28;20038;-66
2023/09/01 06:11:05;;;;;;;3.28;2.97;;;;;;;24.88;60.15;99927.03;5120959;28;20043;-66
2023/09/01 06:13:31;;;;;;;8.20;3.03;;;;;;;24.97;61.01;99934.53;5120312;28;20066;-66
2023/09/01 06:15:56;;;;;;;4.38;2.38;;;;;;;25.15;58.58;99938.81;5121075;28;20048;-66
2023/09/01 06:18:22;;;;;;;4.90;3.00;;;;;;;25.17;59.35;99938.56;5121070;28;20039;-66
2023/09/01 06:20:47;;;;;;;4.53;2.78;;;;;;;25.30;57.83;99941.69;5121166;28;20348;-66
2023/09/01 06:23:12;;;;;;;4.20;2.72;;;;;;;25.28;58.54;99949.25;5120796;28;20031;-66
2023/09/01 06:25:38;;;;;;;5.53;2.78;;;;;;;25.43;58.18;99949.44;5120668;28;20047;-66
2023/09/01 06:28:04;;;;;;;4.82;2.65;;;;;;;25.65;57.20;99954.00;5120702;28;20054;-66
2023/09/01 06:30:29;;;;;;;4.32;2.92;;;;;;;25.68;57.91;99958.94;5120589;28;20111;-66
2023/09/01 06:32:54;;;;;;;5.88;2.90;;;;;;;25.62;57.23;99959.94;5121009;28;20433;-66
2023/09/01 06:35:20;;;;;;;5.30;3.40;;;;;;;25.89;56.34;99954.53;5120366;28;20459;-66
2023/09/01 06:37:45;;;;;;;3.67;2.60;;;;;;;25.89;55.82;99955.34;5120244;28;20035;-65
2023/09/01 06:40:11;;;;;;;4.13;2.75;;;;;;;25.99;54.36;99957.31;5119821;28;20047;-65
2023/09/01 06:42:36;;;;;;;3.78;2.80;;;;;;;26.04;54.21;99954.69;5119908;28;20040;-66
2023/09/01 06:45:03;;;;;;;7.90;3.03;;;;;;;26.12;55.04;99961.53;5119932;28;20065;-65
2023/09/01 06:47:28;;;;;;;5.85;3.13;;;;;;;26.24;54.80;99964.91;5120728;28;20095;-67
2023/09/01 06:49:54;;;;;;;3.10;2.45;;;;;;;26.27;52.86;99958.94;5120072;28;20329;-66
2023/09/01 06:52:19;;;;;;;4.90;2.95;;;;;;;26.47;52.65;99969.16;5120152;28;20101;-66
2023/09/01 06:54:45;;;;;;;4.82;3.15;;;;;;;26.52;53.35;99978.16;5119778;28;20057;-66
2023/09/01 06:57:10;;;;;;;5.45;2.90;;;;;;;26.39;53.07;99971.28;5120267;28;20046;-66
2023/09/01 06:59:36;;;;;;;4.15;2.72;;;;;;;26.68;53.07;99976.38;5119574;28;20038;-66
2023/09/01 07:02:02;;;;;;;7.90;3.45;;;;;;;26.88;52.58;99965.63;5119946;28;20039;-66
2023/09/01 07:04:28;;;;;;;5.30;3.17;;;;;;;27.15;52.10;99973.69;5119612;28;20072;-67
2023/09/01 07:06:53;;;;;;;5.85;3.53;;;;;;;27.14;50.29;99968.53;5119535;28;20048;-64
2023/09/01 07:09:19;;;;;;;8.15;3.60;;;;;;;27.29;50.51;99972.13;5119635;28;20035;-64
2023/09/01 07:11:44;;;;;;;5.88;3.60;;;;;;;27.42;49.48;99969.97;5119281;28;20043;-65
2023/09/01 07:14:10;;;;;;;4.68;3.30;;;;;;;27.12;51.43;99967.97;5119340;28;20024;-66
2023/09/01 07:16:35;;;;;;;5.72;3.72;;;;;;;27.39;51.01;99970.50;5119377;28;20040;-65
2023/09/01 07:19:00;;;;;;;4.70;3.15;;;;;;;27.56;47.72;99968.38;5119335;28;20032;-65
2023/09/01 07:21:26;;;;;;;5.50;3.30;;;;;;;27.58;47.53;99977.91;5120011;28;20045;-66
2023/09/01 07:23:51;;;;;;;4.00;3.60;;;;;;;27.56;48.60;99976.53;5119295;28;20034;-66
2023/09/01 07:26:17;;;;;;;5.10;3.35;;;;;;;27.78;47.72;99979.91;5120135;28;20039;-65
2023/09/01 07:28:43;;;;;;;4.35;3.00;;;;;;;27.79;48.20;99980.72;5119728;28;20039;-65
2023/09/01 07:31:12;;;;;;;4.60;3.13;;;;;;;27.75;47.89;99974.16;5119318;28;20032;-65
2023/09/01 07:33:41;;;;;;;5.13;3.40;;;;;;;27.82;47.51;99981.00;5118556;28;20038;-66
2023/09/01 07:36:11;;;;;;;7.95;3.80;;;;;;;28.01;48.38;99984.00;5119150;28;20048;-65
2023/09/01 07:38:37;;;;;;;4.57;3.58;;;;;;;28.13;47.84;99978.31;5119090;28;20050;-68
2023/09/01 07:41:07;;;;;;;5.90;3.72;;;;;;;28.32;46.63;99975.91;5119240;28;20039;-65
2023/09/01 07:43:33;;;;;;;5.57;3.83;;;;;;;28.39;46.17;99977.25;5118851;28;20037;-65
2023/09/01 07:46:00;;;;;;;5.25;3.70;;;;;;;28.38;47.35;99978.34;5119057;28;20047;-66
2023/09/01 07:48:26;;;;;;;6.55;3.53;;;;;;;28.37;45.41;99971.28;5119257;28;20039;-65
2023/09/01 07:50:51;;;;;;;5.30;3.22;;;;;;;28.56;46.09;99971.50;5119277;28;20229;-65
2023/09/01 07:53:17;;;;;;;7.25;3.53;;;;;;;28.69;46.45;99976.41;5118910;28;20069;-66
2023/09/01 07:55:42;;;;;;;4.72;3.80;;;;;;;28.78;44.08;99966.56;5119456;28;20104;-66
2023/09/01 07:58:08;;;;;;;5.95;3.53;;;;;;;28.79;44.95;99973.66;5119007;28;20039;-66
2023/09/01 08:00:35;;;;;;;6.57;3.83;;;;;;;29.03;44.37;99973.06;5119267;28;20051;-66
2023/09/01 08:03:00;;;;;;;6.65;3.25;;;;;;;29.13;42.90;99975.75;5119271;28;20035;-65
2023/09/01 08:05:26;;;;;;;4.70;3.33;;;;;;;29.20;42.73;99968.94;5119231;28;20317;-65
2023/09/01 08:07:53;;;;;;;5.35;3.72;;;;;;;29.16;43.09;99969.78;5118742;28;20046;-66
2023/09/01 08:10:18;;;;;;;3.85;3.42;;;;;;;29.30;42.86;99970.81;5118567;28;20035;-67
2023/09/01 08:12:44;;;;;;;4.70;4.07;;;;;;;29.30;42.08;99968.06;5118545;28;20271;-64
2023/09/01 08:15:10;;;;;;;4.65;3.42;;;;;;;29.28;42.92;99967.53;5118545;28;20035;-65
2023/09/01 08:17:35;;;;;;;4.60;3.55;;;;;;;29.47;42.78;99973.19;5118719;28;20135;-65
2023/09/01 08:20:03;;;;;;;4.50;3.42;;;;;;;29.63;43.35;99965.75;5118964;28;20064;-64
2023/09/01 08:22:32;;;;;;;4.68;3.35;;;;;;;29.60;41.59;99961.66;5118188;28;20023;-64
2023/09/01 08:24:58;;;;;;;5.75;3.45;;;;;;;29.78;41.10;99960.19;5118861;28;20023;-64
2023/09/01 08:27:26;;;;;;;6.40;3.70;;;;;;;29.69;40.85;99961.88;5118950;28;20317;-65
2023/09/01 08:29:52;;;;;;;5.15;3.83;;;;;;;29.74;41.78;99951.75;5118874;28;20103;-64
2023/09/01 08:32:17;;;;;;;4.10;3.10;;;;;;;29.85;41.13;99953.31;5118953;28;20251;-65
2023/09/01 08:34:43;;;;;;;4.22;3.03;;;;;;;29.89;40.84;99953.56;5118849;28;20035;-65
2023/09/01 08:37:10;;;;;;;3.78;3.40;;;;;;;29.90;40.54;99946.19;5119252;28;20228;-65
2023/09/01 08:39:36;;;;;;;3.65;3.10;;;;;;;29.84;39.42;99948.94;5118057;28;20336;-65
2023/09/01 08:42:02;;;;;;;5.32;3.15;;;;;;;30.02;39.93;99950.19;5118613;28;20070;-64
2023/09/01 08:44:30;;;;;;;3.40;3.10;;;;;;;30.00;41.77;99937.91;5118166;28;20031;-65
2023/09/01 08:46:57;;;;;;;4.15;3.20;;;;;;;30.13;41.17;99940.81;5118841;28;20094;-65
2023/09/01 08:49:26;;;;;;;3.45;3.10;;;;;;;30.22;38.87;99937.50;5118765;28;20080;-65
2023/09/01 08:51:55;;;;;;;3.72;3.13;;;;;;;30.28;38.64;99937.16;5118976;28;20042;-65
2023/09/01 08:54:20;;;;;;;4.57;3.25;;;;;;;30.29;38.94;99935.25;5118695;28;20058;-64
2023/09/01 08:56:46;;;;;;;3.58;3.25;;;;;;;30.28;38.32;99928.16;5118779;28;20036;-65
2023/09/01 08:59:11;;;;;;;4.03;3.10;;;;;;;30.30;38.88;99929.50;5118374;28;20050;-65
2023/09/01 09:01:39;;;;;;;4.22;3.40;;;;;;;30.23;38.13;99922.75;5118313;28;20040;-67
2023/09/01 09:04:06;;;;;;;4.68;3.15;;;;;;;30.18;38.91;99929.88;5118467;28;20333;-67
2023/09/01 09:06:41;;;;;;;3.78;2.88;;;;;;;30.01;38.64;99912.22;5118334;28;20356;-67
2023/09/01 09:09:14;;;;;;;4.60;2.70;;;;;;;30.06;39.73;99913.03;5118452;28;20056;-67
2023/09/01 09:11:59;;;;;;;2.95;2.67;;;;;;;30.24;38.57;99919.72;5118272;28;20558;-66
2023/09/01 09:14:27;;;;;;;3.20;2.90;;;;;;;30.25;38.36;99913.16;5118034;28;20032;-66
2023/09/01 09:16:57;;;;;;;4.03;2.53;;;;;;;30.29;38.02;99921.59;5117984;28;20040;-64
2023/09/01 09:19:24;;;;;;;2.70;2.50;;;;;;;30.08;37.46;99916.28;5118288;28;20051;-64
2023/09/01 09:22:04;;;;;;;4.93;3.03;;;;;;;30.04;38.10;99908.97;5118803;28;20115;-65
2023/09/01 09:24:36;;;;;;;4.57;3.00;;;;;;;30.23;39.66;99909.09;5118080;28;20325;-66
2023/09/01 09:27:03;;;;;;;4.25;2.67;;;;;;;30.10;38.56;99911.34;5118674;28;20329;-65
2023/09/01 09:29:38;;;;;;;3.28;2.78;;;;;;;30.02;39.56;99905.69;5117970;28;20038;-66
2023/09/01 09:32:18;;;;;;;3.70;3.10;;;;;;;30.09;38.60;99903.44;5118720;28;20035;-66
2023/09/01 09:35:04;;;;;;;5.78;3.45;;;;;;;29.99;37.54;99907.06;5121180;28;20023;-65
2023/09/01 09:37:29;;;;;;;2.97;2.45;;;;;;;29.91;38.15;99907.66;5121942;28;20259;-66
2023/09/01 09:40:10;;;;;;;2.60;2.28;;;;;;;29.93;38.49;99904.66;5121516;28;20023;-66
2023/09/01 09:42:38;;;;;;;3.03;2.72;;;;;;;29.83;36.43;99898.19;5121253;28;20100;-65
2023/09/01 09:45:03;;;;;;;3.22;2.70;;;;;;;29.72;36.11;99893.91;5122064;28;20112;-66
2023/09/01 09:47:30;;;;;;;3.60;2.47;;;;;;;29.63;38.16;99892.88;5121517;28;20368;-66
2023/09/01 09:49:57;;;;;;;3.53;2.25;;;;;;;29.67;37.56;99895.84;5120982;28;20042;-66
2023/09/01 09:52:24;;;;;;;2.63;2.20;;;;;;;29.73;35.13;99895.53;5121349;28;20039;-66
2023/09/01 09:54:51;;;;;;;3.45;2.70;;;;;;;29.66;36.18;99891.50;5121393;28;20112;-67
2023/09/01 09:57:19;;;;;;;3.53;2.60;;;;;;;29.74;36.54;99885.44;5121209;28;20068;-67
2023/09/01 09:59:55;;;;;;;4.78;3.05;;;;;;;29.72;38.78;99882.97;5121301;28;20343;-65
2023/09/01 10:02:35;;;;;;;3.97;2.60;;;;;;;29.82;39.84;99879.34;5121644;28;20027;-65
2023/09/01 10:05:04;;;;;;;3.35;2.63;;;;;;;29.91;39.05;99876.81;5121471;28;20023;-64
2023/09/01 10:07:30;;;;;;;4.70;2.92;;;;;;;29.86;37.98;99875.78;5120826;28;20048;-65
2023/09/01 10:09:57;;;;;;;3.35;2.33;;;;;;;29.79;36.63;99874.47;5120510;28;20047;-65
2023/09/01 10:12:26;;;;;;;3.33;2.80;;;;;;;29.57;37.62;99874.91;5120963;28;20194;-66
2023/09/01 10:14:54;;;;;;;4.63;3.08;;;;;;;29.52;39.20;99870.31;5120769;28;20344;-65
2023/09/01 10:17:22;;;;;;;3.75;2.78;;;;;;;29.59;38.18;99867.25;5120944;28;20096;-65
2023/09/01 10:19:47;;;;;;;3.40;2.60;;;;;;;29.55;36.33;99867.00;5120557;28;20024;-66
2023/09/01 10:22:16;;;;;;;3.08;2.42;;;;;;;29.57;36.45;99876.81;5121151;28;20027;-66
2023/09/01 10:25:11;;;;;;;2.72;2.10;;;;;;;29.51;34.07;99870.59;5120846;28;20031;-65
2023/09/01 10:27:38;;;;;;;5.30;2.92;;;;;;;29.63;36.25;99865.59;5120556;28;20051;-65
2023/09/01 10:30:26;;;;;;;4.07;2.63;;;;;;;29.84;35.08;99867.06;5120316;28;20023;-66
2023/09/01 10:33:08;;;;;;;3.03;2.72;;;;;;;29.93;35.72;99858.25;5120469;28;20047;-66
2023/09/01 10:35:48;;;;;;;2.38;2.10;;;;;;;30.05;33.96;99856.78;5120223;28;20198;-66
2023/09/01 10:38:30;;;;;;;4.68;2.53;;;;;;;30.09;35.20;99863.31;5120585;28;20031;-66
2023/09/01 10:40:55;;;;;;;2.78;2.45;;;;;;;30.11;35.56;99855.63;5120467;28;20217;-66
2023/09/01 10:43:33;;;;;;;3.30;2.60;;;;;;;30.15;35.69;99859.41;5120446;28;20036;-66
2023/09/01 10:46:16;;;;;;;4.18;2.70;;;;;;;30.21;33.90;99864.88;5120324;28;20213;-66
2023/09/01 10:48:58;;;;;;;3.40;2.45;;;;;;;30.30;33.52;99863.94;5119908;28;20039;-66
2023/09/01 10:51:30;;;;;;;4.35;2.50;;;;;;;30.34;33.31;99864.19;5120732;28;20043;-65
2023/09/01 10:53:57;;;;;;;4.43;2.45;;;;;;;30.29;32.68;99866.97;5119574;28;20465;-65
2023/09/01 10:56:23;;;;;;;4.35;2.20;;;;;;;30.27;32.07;99856.34;5120289;28;20317;-65
2023/09/01 10:58:56;;;;;;;2.63;2.30;;;;;;;30.18;32.41;99856.16;5120336;28;20098;-65
2023/09/01 11:01:28;;;;;;;3.33;2.28;;;;;;;30.04;31.95;99857.09;5120219;28;20198;-65
2023/09/01 11:03:54;;;;;;;2.60;2.40;;;;;;;30.07;30.89;99853.78;5120135;28;20081;-64
2023/09/01 11:06:23;;;;;;;3.03;2.42;;;;;;;30.08;31.26;99855.41;5119988;28;20476;-65
2023/09/01 11:09:00;;;;;;;3.20;2.35;;;;;;;30.00;30.92;99851.34;5119905;28;20141;-66
2023/09/01 11:11:27;;;;;;;2.72;2.08;;;;;;;29.98;32.31;99844.56;5119519;28;20039;-66
2023/09/01 11:13:59;;;;;;;2.22;2.03;;;;;;;29.99;31.97;99843.44;5119590;28;20031;-66
2023/09/01 11:16:25;;;;;;;2.90;2.30;;;;;;;29.93;32.02;99830.94;5119716;28;20046;-65
2023/09/01 11:19:03;;;;;;;2.40;2.17;;;;;;;29.97;31.41;99832.00;5119711;28;20031;-66
2023/09/01 11:21:30;;;;;;;2.40;2.13;;;;;;;29.85;31.23;99837.84;5119594;28;20043;-66
2023/09/01 11:24:00;;;;;;;3.67;2.30;;;;;;;29.90;32.61;99837.78;5119231;28;20030;-65
2023/09/01 11:26:26;;;;;;;3.95;2.47;;;;;;;29.85;32.44;99824.19;5119448;28;20032;-66
2023/09/01 11:28:51;;;;;;;3.50;2.40;;;;;;;29.93;34.99;99828.22;5119878;28;20379;-66
2023/09/01 11:31:17;;;;;;;2.80;2.05;;;;;;;29.98;32.58;99820.78;5119443;28;20054;-66
2023/09/01 11:33:51;;;;;;;5.30;2.75;;;;;;;30.04;33.54;99818.84;5119178;28;20032;-67
2023/09/01 11:36:17;;;;;;;4.07;2.05;;;;;;;30.04;33.11;99810.66;5119619;28;20040;-66